sensor_id;sensor_type;location;lat;lon;timestamp;P1;durP1;ratioP1;P2;durP2;ratioP2
76986;SDS011;65922;50.086;8.598;2023-04-02T00:00:04;0.5;;;1.2;;
76986;SDS011;65922;50.086;8.598;2023-04-02T00:01:05;0;;;0.5;;
76986;SDS011;65922;50.086;8.598;2023-04-02T00:03:00;0.7;;;1.3;;
76986;SDS011;65922;50.086;8.598;2023-04-02T00:03:05;0;;;0.2;;
76986;SDS011;65922;50.086;8.598;2023-04-02T00:04:01;0;;;0.7;;
76986;SDS011;65922;50.086;8.598;2023-04-02T00:06:00;0.2;;;0.7;;
76986;SDS011;65922;50.086;8.598;2023-04-02T00:06:06;0;;;0.4;;
76986;SDS011;65922;50.086;8.598;2023-04-02T00:07:17;0.1;;;0.4;;
76986;SDS011;65922;50.086;8.598;2023-04-02T00:08:00;0;;;0;;
76986;SDS011;65922;50.086;8.598;2023-04-02T00:09:00;0;;;1.2;;
76986;SDS011;65922;50.086;8.598;2023-04-02T00:10:00;0;;;0.7;;
76986;SDS011;65922;50.086;8.598;2023-04-02T00:11:00;0;;;0.5;;
76986;SDS011;65922;50.086;8.598;2023-04-02T00:12:10;0.3;;;1;;
76986;SDS011;65922;50.086;8.598;2023-04-02T00:13:02;0.1;;;0.8;;
76986;SDS011;65922;50.086;8.598;2023-04-02T00:14:00;0;;;0;;
76986;SDS011;65922;50.086;8.598;2023-04-02T00:15:00;0;;;0;;
76986;SDS011;65922;50.086;8.598;2023-04-02T00:16:00;0;;;0.8;;
76986;SDS011;65922;50.086;8.598;2023-04-02T00:17:00;0.2;;;3.9;;
76986;SDS011;65922;50.086;8.598;2023-04-02T00:18:00;0;;;0.3;;
76986;SDS011;65922;50.086;8.598;2023-04-02T00:19:00;0;;;1.1;;
76986;SDS011;65922;50.086;8.598;2023-04-02T00:20:01;0.1;;;0.3;;
76986;SDS011;65922;50.086;8.598;2023-04-02T00:21:04;0.1;;;0.3;;
76986;SDS011;65922;50.086;8.598;2023-04-02T00:22:00;0;;;0.3;;
76986;SDS011;65922;50.086;8.598;2023-04-02T00:23:00;0;;;0.2;;
76986;SDS011;65922;50.086;8.598;2023-04-02T00:24:00;0;;;0.2;;
76986;SDS011;65922;50.086;8.598;2023-04-02T00:25:01;0;;;0.3;;
76986;SDS011;65922;50.086;8.598;2023-04-02T00:26:00;0;;;0.4;;
76986;SDS011;65922;50.086;8.598;2023-04-02T00:27:00;0.1;;;0.4;;
76986;SDS011;65922;50.086;8.598;2023-04-02T00:28:00;0;;;0.6;;
76986;SDS011;65922;50.086;8.598;2023-04-02T00:29:00;0;;;0.5;;
76986;SDS011;65922;50.086;8.598;2023-04-02T00:30:00;0.2;;;0.2;;
76986;SDS011;65922;50.086;8.598;2023-04-02T00:31:00;0;;;0.2;;
76986;SDS011;65922;50.086;8.598;2023-04-02T00:32:00;0;;;0.1;;
76986;SDS011;65922;50.086;8.598;2023-04-02T00:33:00;0;;;0.1;;
76986;SDS011;65922;50.086;8.598;2023-04-02T00:34:00;0;;;0.2;;
76986;SDS011;65922;50.086;8.598;2023-04-02T00:35:00;0;;;0;;
76986;SDS011;65922;50.086;8.598;2023-04-02T00:36:00;0.3;;;1.2;;
76986;SDS011;65922;50.086;8.598;2023-04-02T00:37:00;0;;;0.1;;
76986;SDS011;65922;50.086;8.598;2023-04-02T00:38:00;0;;;0.1;;
76986;SDS011;65922;50.086;8.598;2023-04-02T00:39:01;0;;;0;;
76986;SDS011;65922;50.086;8.598;2023-04-02T00:40:00;0.8;;;4.7;;
76986;SDS011;65922;50.086;8.598;2023-04-02T00:41:01;0.7;;;1.1;;
76986;SDS011;65922;50.086;8.598;2023-04-02T00:42:00;1.6;;;1.7;;
76986;SDS011;65922;50.086;8.598;2023-04-02T00:43:00;0;;;0.1;;
76986;SDS011;65922;50.086;8.598;2023-04-02T00:44:00;0.1;;;0.7;;
76986;SDS011;65922;50.086;8.598;2023-04-02T00:45:00;0.7;;;3.7;;
76986;SDS011;65922;50.086;8.598;2023-04-02T00:46:02;0;;;0.6;;
76986;SDS011;65922;50.086;8.598;2023-04-02T00:47:02;0.3;;;0.4;;
76986;SDS011;65922;50.086;8.598;2023-04-02T00:48:12;0;;;0.6;;
76986;SDS011;65922;50.086;8.598;2023-04-02T00:49:00;0.8;;;0.9;;
76986;SDS011;65922;50.086;8.598;2023-04-02T00:50:03;0.1;;;4.2;;
76986;SDS011;65922;50.086;8.598;2023-04-02T00:51:00;0.5;;;0.7;;
76986;SDS011;65922;50.086;8.598;2023-04-02T00:52:00;0;;;0.4;;
76986;SDS011;65922;50.086;8.598;2023-04-02T00:53:02;0.1;;;0.9;;
76986;SDS011;65922;50.086;8.598;2023-04-02T00:54:00;0.2;;;0.8;;
76986;SDS011;65922;50.086;8.598;2023-04-02T00:55:02;0.1;;;0.4;;
76986;SDS011;65922;50.086;8.598;2023-04-02T00:56:00;1;;;3.4;;
76986;SDS011;65922;50.086;8.598;2023-04-02T00:57:00;0.3;;;0.4;;
76986;SDS011;65922;50.086;8.598;2023-04-02T00:58:00;0.4;;;0.9;;
76986;SDS011;65922;50.086;8.598;2023-04-02T00:59:00;0.1;;;0.6;;
76986;SDS011;65922;50.086;8.598;2023-04-02T01:00:00;0.2;;;0.9;;
76986;SDS011;65922;50.086;8.598;2023-04-02T01:01:00;0.2;;;0.7;;
76986;SDS011;65922;50.086;8.598;2023-04-02T01:02:18;0.3;;;0.8;;
76986;SDS011;65922;50.086;8.598;2023-04-02T01:03:13;0.5;;;1.8;;
76986;SDS011;65922;50.086;8.598;2023-04-02T01:04:00;0.8;;;0.9;;
76986;SDS011;65922;50.086;8.598;2023-04-02T01:05:00;0.2;;;0.7;;
76986;SDS011;65922;50.086;8.598;2023-04-02T01:06:00;0.5;;;1.1;;
76986;SDS011;65922;50.086;8.598;2023-04-02T01:07:01;0.2;;;0.5;;
76986;SDS011;65922;50.086;8.598;2023-04-02T01:08:02;0;;;0;;
76986;SDS011;65922;50.086;8.598;2023-04-02T01:09:02;0.2;;;0.9;;
76986;SDS011;65922;50.086;8.598;2023-04-02T01:10:07;0.5;;;2.6;;
76986;SDS011;65922;50.086;8.598;2023-04-02T01:11:01;0.6;;;1.4;;
76986;SDS011;65922;50.086;8.598;2023-04-02T01:12:06;0.5;;;1;;
76986;SDS011;65922;50.086;8.598;2023-04-02T01:13:03;0.2;;;1.1;;
76986;SDS011;65922;50.086;8.598;2023-04-02T01:14:01;1;;;1;;
76986;SDS011;65922;50.086;8.598;2023-04-02T01:15:02;0.1;;;1.5;;
76986;SDS011;65922;50.086;8.598;2023-04-02T01:16:01;0.4;;;1.4;;
76986;SDS011;65922;50.086;8.598;2023-04-02T01:17:01;0.4;;;1.6;;
76986;SDS011;65922;50.086;8.598;2023-04-02T01:18:02;0.2;;;0.7;;
76986;SDS011;65922;50.086;8.598;2023-04-02T01:19:00;0.5;;;1.3;;
76986;SDS011;65922;50.086;8.598;2023-04-02T01:20:11;0.1;;;0.7;;
76986;SDS011;65922;50.086;8.598;2023-04-02T01:22:00;0.4;;;1.1;;
76986;SDS011;65922;50.086;8.598;2023-04-02T01:23:00;0.2;;;0.6;;
76986;SDS011;65922;50.086;8.598;2023-04-02T01:24:00;0.9;;;1.3;;
76986;SDS011;65922;50.086;8.598;2023-04-02T01:25:00;0.4;;;1.4;;
76986;SDS011;65922;50.086;8.598;2023-04-02T01:26:02;0.5;;;1.1;;
76986;SDS011;65922;50.086;8.598;2023-04-02T01:27:00;0.2;;;1.7;;
76986;SDS011;65922;50.086;8.598;2023-04-02T01:28:01;1;;;2;;
76986;SDS011;65922;50.086;8.598;2023-04-02T01:29:00;0.4;;;0.9;;
76986;SDS011;65922;50.086;8.598;2023-04-02T01:30:00;0.4;;;1.6;;
76986;SDS011;65922;50.086;8.598;2023-04-02T01:31:00;0.1;;;0.9;;
76986;SDS011;65922;50.086;8.598;2023-04-02T01:32:01;0.4;;;1.6;;
76986;SDS011;65922;50.086;8.598;2023-04-02T01:33:00;1.6;;;2;;
76986;SDS011;65922;50.086;8.598;2023-04-02T01:34:00;0.5;;;4.4;;
76986;SDS011;65922;50.086;8.598;2023-04-02T01:35:00;2.9;;;3.2;;
76986;SDS011;65922;50.086;8.598;2023-04-02T01:36:02;0.2;;;1.2;;
76986;SDS011;65922;50.086;8.598;2023-04-02T01:37:04;0.4;;;0.7;;
76986;SDS011;65922;50.086;8.598;2023-04-02T01:38:01;0.9;;;1.4;;
76986;SDS011;65922;50.086;8.598;2023-04-02T01:39:02;0.6;;;2.6;;
76986;SDS011;65922;50.086;8.598;2023-04-02T01:40:04;0.5;;;1;;
76986;SDS011;65922;50.086;8.598;2023-04-02T01:41:01;0.4;;;0.9;;
76986;SDS011;65922;50.086;8.598;2023-04-02T01:42:01;0.6;;;1.3;;
76986;SDS011;65922;50.086;8.598;2023-04-02T01:43:02;1.1;;;2.4;;
76986;SDS011;65922;50.086;8.598;2023-04-02T01:44:03;1;;;1.4;;
76986;SDS011;65922;50.086;8.598;2023-04-02T01:45:00;0.3;;;8.5;;
76986;SDS011;65922;50.086;8.598;2023-04-02T01:46:03;0.5;;;1.3;;
76986;SDS011;65922;50.086;8.598;2023-04-02T01:47:01;1.6;;;1.7;;
76986;SDS011;65922;50.086;8.598;2023-04-02T01:48:00;0.9;;;0.9;;
76986;SDS011;65922;50.086;8.598;2023-04-02T01:49:01;0.8;;;1.7;;
76986;SDS011;65922;50.086;8.598;2023-04-02T01:50:00;1.6;;;3;;
76986;SDS011;65922;50.086;8.598;2023-04-02T01:51:00;0.5;;;1.3;;
76986;SDS011;65922;50.086;8.598;2023-04-02T01:52:00;0.7;;;2;;
76986;SDS011;65922;50.086;8.598;2023-04-02T01:53:00;1.2;;;4;;
76986;SDS011;65922;50.086;8.598;2023-04-02T01:54:01;0.9;;;2.3;;
76986;SDS011;65922;50.086;8.598;2023-04-02T01:55:00;1.7;;;2.1;;
76986;SDS011;65922;50.086;8.598;2023-04-02T01:56:00;1;;;2.9;;
76986;SDS011;65922;50.086;8.598;2023-04-02T01:57:01;0.5;;;2.2;;
76986;SDS011;65922;50.086;8.598;2023-04-02T01:58:00;0.8;;;1.7;;
76986;SDS011;65922;50.086;8.598;2023-04-02T01:59:00;0.4;;;1.2;;
76986;SDS011;65922;50.086;8.598;2023-04-02T02:00:00;1;;;3.2;;
76986;SDS011;65922;50.086;8.598;2023-04-02T02:01:00;1.2;;;2.1;;
76986;SDS011;65922;50.086;8.598;2023-04-02T02:02:00;2;;;4.7;;
76986;SDS011;65922;50.086;8.598;2023-04-02T02:03:00;1.7;;;5;;
76986;SDS011;65922;50.086;8.598;2023-04-02T02:04:00;1.4;;;2.4;;
76986;SDS011;65922;50.086;8.598;2023-04-02T02:05:00;0.9;;;3.9;;
76986;SDS011;65922;50.086;8.598;2023-04-02T02:06:00;1.5;;;4.3;;
76986;SDS011;65922;50.086;8.598;2023-04-02T02:07:00;2.4;;;3.5;;
76986;SDS011;65922;50.086;8.598;2023-04-02T02:08:00;1.2;;;2.3;;
76986;SDS011;65922;50.086;8.598;2023-04-02T02:09:01;1.7;;;4.1;;
76986;SDS011;65922;50.086;8.598;2023-04-02T02:10:00;1.3;;;2.7;;
76986;SDS011;65922;50.086;8.598;2023-04-02T02:11:00;0.4;;;1.2;;
76986;SDS011;65922;50.086;8.598;2023-04-02T02:12:00;1.9;;;3.9;;
76986;SDS011;65922;50.086;8.598;2023-04-02T02:13:00;1.1;;;1.5;;
76986;SDS011;65922;50.086;8.598;2023-04-02T02:14:00;0.6;;;2.5;;
76986;SDS011;65922;50.086;8.598;2023-04-02T02:15:00;0.8;;;2.5;;
76986;SDS011;65922;50.086;8.598;2023-04-02T02:16:00;1.7;;;3.2;;
76986;SDS011;65922;50.086;8.598;2023-04-02T02:17:00;1.5;;;2.9;;
76986;SDS011;65922;50.086;8.598;2023-04-02T02:18:01;2;;;3.1;;
76986;SDS011;65922;50.086;8.598;2023-04-02T02:19:00;1.5;;;2.4;;
76986;SDS011;65922;50.086;8.598;2023-04-02T02:20:00;1.4;;;2.7;;
76986;SDS011;65922;50.086;8.598;2023-04-02T02:21:00;0.9;;;1.8;;
76986;SDS011;65922;50.086;8.598;2023-04-02T02:22:04;2.4;;;4;;
76986;SDS011;65922;50.086;8.598;2023-04-02T02:23:00;2;;;3.1;;
76986;SDS011;65922;50.086;8.598;2023-04-02T02:24:00;1.8;;;4.5;;
76986;SDS011;65922;50.086;8.598;2023-04-02T02:25:00;1;;;1.5;;
76986;SDS011;65922;50.086;8.598;2023-04-02T02:26:03;1.7;;;2.3;;
76986;SDS011;65922;50.086;8.598;2023-04-02T02:27:03;1.5;;;4.6;;
76986;SDS011;65922;50.086;8.598;2023-04-02T02:28:01;1.1;;;2.4;;
76986;SDS011;65922;50.086;8.598;2023-04-02T02:29:00;2.4;;;3.4;;
76986;SDS011;65922;50.086;8.598;2023-04-02T02:30:01;1.3;;;2.7;;
76986;SDS011;65922;50.086;8.598;2023-04-02T02:31:00;1.7;;;3.1;;
76986;SDS011;65922;50.086;8.598;2023-04-02T02:32:00;2;;;2.5;;
76986;SDS011;65922;50.086;8.598;2023-04-02T02:33:01;1.6;;;3.7;;
76986;SDS011;65922;50.086;8.598;2023-04-02T02:34:01;2.2;;;4.4;;
76986;SDS011;65922;50.086;8.598;2023-04-02T02:35:00;1.5;;;2.4;;
76986;SDS011;65922;50.086;8.598;2023-04-02T02:36:01;2.3;;;4.4;;
76986;SDS011;65922;50.086;8.598;2023-04-02T02:37:01;1.9;;;2.7;;
76986;SDS011;65922;50.086;8.598;2023-04-02T02:38:02;1.7;;;2.3;;
76986;SDS011;65922;50.086;8.598;2023-04-02T02:39:00;2.4;;;5.3;;
76986;SDS011;65922;50.086;8.598;2023-04-02T02:40:00;1.3;;;4.7;;
76986;SDS011;65922;50.086;8.598;2023-04-02T02:41:01;0.3;;;0.4;;
76986;SDS011;65922;50.086;8.598;2023-04-02T02:42:01;1.8;;;4.1;;
76986;SDS011;65922;50.086;8.598;2023-04-02T02:43:00;1.4;;;4.8;;
76986;SDS011;65922;50.086;8.598;2023-04-02T02:44:01;0.9;;;3.8;;
76986;SDS011;65922;50.086;8.598;2023-04-02T02:45:00;1.7;;;4.4;;
76986;SDS011;65922;50.086;8.598;2023-04-02T02:46:00;2.3;;;3.6;;
76986;SDS011;65922;50.086;8.598;2023-04-02T02:47:01;1;;;2.4;;
76986;SDS011;65922;50.086;8.598;2023-04-02T02:48:00;1.4;;;2.8;;
76986;SDS011;65922;50.086;8.598;2023-04-02T02:49:00;1.3;;;6.4;;
76986;SDS011;65922;50.086;8.598;2023-04-02T02:50:00;1.8;;;2.1;;
76986;SDS011;65922;50.086;8.598;2023-04-02T02:51:00;1.3;;;2.4;;
76986;SDS011;65922;50.086;8.598;2023-04-02T02:52:02;2;;;8.2;;
76986;SDS011;65922;50.086;8.598;2023-04-02T02:53:02;2;;;2.3;;
76986;SDS011;65922;50.086;8.598;2023-04-02T02:54:00;1.6;;;2.6;;
76986;SDS011;65922;50.086;8.598;2023-04-02T02:55:01;2.3;;;4.3;;
76986;SDS011;65922;50.086;8.598;2023-04-02T02:56:00;1.8;;;2.7;;
76986;SDS011;65922;50.086;8.598;2023-04-02T02:57:00;2.1;;;3.3;;
76986;SDS011;65922;50.086;8.598;2023-04-02T02:58:00;0.8;;;2.9;;
76986;SDS011;65922;50.086;8.598;2023-04-02T02:59:00;1;;;1.2;;
76986;SDS011;65922;50.086;8.598;2023-04-02T03:00:00;0.3;;;2;;
76986;SDS011;65922;50.086;8.598;2023-04-02T03:01:00;0.7;;;5.2;;
76986;SDS011;65922;50.086;8.598;2023-04-02T03:02:00;1.6;;;4.2;;
76986;SDS011;65922;50.086;8.598;2023-04-02T03:03:00;1.2;;;3.7;;
76986;SDS011;65922;50.086;8.598;2023-04-02T03:04:00;1.7;;;2.9;;
76986;SDS011;65922;50.086;8.598;2023-04-02T03:05:00;3;;;5.6;;
76986;SDS011;65922;50.086;8.598;2023-04-02T03:06:01;0.7;;;1.6;;
76986;SDS011;65922;50.086;8.598;2023-04-02T03:07:00;1.9;;;2.7;;
76986;SDS011;65922;50.086;8.598;2023-04-02T03:08:00;1.6;;;5.5;;
76986;SDS011;65922;50.086;8.598;2023-04-02T03:09:02;1.5;;;2.4;;
76986;SDS011;65922;50.086;8.598;2023-04-02T03:10:02;2.4;;;3.9;;
76986;SDS011;65922;50.086;8.598;2023-04-02T03:11:01;2;;;5;;
76986;SDS011;65922;50.086;8.598;2023-04-02T03:12:01;1.6;;;2.8;;
76986;SDS011;65922;50.086;8.598;2023-04-02T03:13:01;2;;;4;;
76986;SDS011;65922;50.086;8.598;2023-04-02T03:14:01;1.1;;;3.6;;
76986;SDS011;65922;50.086;8.598;2023-04-02T03:15:01;2.1;;;5.1;;
76986;SDS011;65922;50.086;8.598;2023-04-02T03:16:01;1.4;;;3.2;;
76986;SDS011;65922;50.086;8.598;2023-04-02T03:17:02;1.6;;;3.7;;
76986;SDS011;65922;50.086;8.598;2023-04-02T03:18:01;1.7;;;2.5;;
76986;SDS011;65922;50.086;8.598;2023-04-02T03:19:01;0.9;;;2.2;;
76986;SDS011;65922;50.086;8.598;2023-04-02T03:20:00;0.9;;;2;;
76986;SDS011;65922;50.086;8.598;2023-04-02T03:21:01;1.5;;;3.1;;
76986;SDS011;65922;50.086;8.598;2023-04-02T03:22:01;1.8;;;4;;
76986;SDS011;65922;50.086;8.598;2023-04-02T03:23:01;1.1;;;3.9;;
76986;SDS011;65922;50.086;8.598;2023-04-02T03:24:08;1.3;;;3;;
76986;SDS011;65922;50.086;8.598;2023-04-02T03:25:04;1;;;4.7;;
76986;SDS011;65922;50.086;8.598;2023-04-02T03:26:00;0.8;;;2.4;;
76986;SDS011;65922;50.086;8.598;2023-04-02T03:27:00;1.7;;;4.3;;
76986;SDS011;65922;50.086;8.598;2023-04-02T03:28:00;1.5;;;2;;
76986;SDS011;65922;50.086;8.598;2023-04-02T03:29:00;0;;;0.1;;
76986;SDS011;65922;50.086;8.598;2023-04-02T03:30:03;2;;;4.3;;
76986;SDS011;65922;50.086;8.598;2023-04-02T03:31:00;1.4;;;3.1;;
76986;SDS011;65922;50.086;8.598;2023-04-02T03:32:02;1.7;;;3.1;;
76986;SDS011;65922;50.086;8.598;2023-04-02T03:33:00;1.8;;;5.6;;
76986;SDS011;65922;50.086;8.598;2023-04-02T03:34:00;0.6;;;1.5;;
76986;SDS011;65922;50.086;8.598;2023-04-02T03:35:01;1.6;;;4.4;;
76986;SDS011;65922;50.086;8.598;2023-04-02T03:36:01;2.5;;;3.2;;
76986;SDS011;65922;50.086;8.598;2023-04-02T03:37:00;0.5;;;4.5;;
76986;SDS011;65922;50.086;8.598;2023-04-02T03:38:01;1;;;4;;
76986;SDS011;65922;50.086;8.598;2023-04-02T03:39:01;1.1;;;2.8;;
76986;SDS011;65922;50.086;8.598;2023-04-02T03:40:00;1.3;;;5.2;;
76986;SDS011;65922;50.086;8.598;2023-04-02T03:41:01;1;;;2.2;;
76986;SDS011;65922;50.086;8.598;2023-04-02T03:42:01;1.3;;;2.9;;
76986;SDS011;65922;50.086;8.598;2023-04-02T03:43:02;2.3;;;3.8;;
76986;SDS011;65922;50.086;8.598;2023-04-02T03:44:00;2.1;;;3.7;;
76986;SDS011;65922;50.086;8.598;2023-04-02T03:45:01;1.6;;;2.9;;
76986;SDS011;65922;50.086;8.598;2023-04-02T03:46:02;2.4;;;6.1;;
76986;SDS011;65922;50.086;8.598;2023-04-02T03:47:00;0.9;;;2.3;;
76986;SDS011;65922;50.086;8.598;2023-04-02T03:48:02;2;;;4.1;;
76986;SDS011;65922;50.086;8.598;2023-04-02T03:49:01;1.2;;;2.4;;
76986;SDS011;65922;50.086;8.598;2023-04-02T03:50:00;1.5;;;4.7;;
76986;SDS011;65922;50.086;8.598;2023-04-02T03:51:01;1.3;;;3.6;;
76986;SDS011;65922;50.086;8.598;2023-04-02T03:52:01;2.2;;;5.8;;
76986;SDS011;65922;50.086;8.598;2023-04-02T03:53:00;2.1;;;3.8;;
76986;SDS011;65922;50.086;8.598;2023-04-02T03:54:00;2.2;;;6.4;;
76986;SDS011;65922;50.086;8.598;2023-04-02T03:55:00;2.8;;;3.9;;
76986;SDS011;65922;50.086;8.598;2023-04-02T03:56:00;1.9;;;3.1;;
76986;SDS011;65922;50.086;8.598;2023-04-02T03:57:00;1.3;;;3.3;;
76986;SDS011;65922;50.086;8.598;2023-04-02T03:58:02;1.6;;;8.2;;
76986;SDS011;65922;50.086;8.598;2023-04-02T03:59:03;1.9;;;3.9;;
76986;SDS011;65922;50.086;8.598;2023-04-02T04:00:01;1;;;2.6;;
76986;SDS011;65922;50.086;8.598;2023-04-02T04:01:01;1.4;;;2.5;;
76986;SDS011;65922;50.086;8.598;2023-04-02T04:02:01;1.3;;;2.6;;
76986;SDS011;65922;50.086;8.598;2023-04-02T04:03:02;2.5;;;4.4;;
76986;SDS011;65922;50.086;8.598;2023-04-02T04:04:01;1.2;;;2.2;;
76986;SDS011;65922;50.086;8.598;2023-04-02T04:05:00;1.8;;;4.3;;
76986;SDS011;65922;50.086;8.598;2023-04-02T04:06:00;1.6;;;2.9;;
76986;SDS011;65922;50.086;8.598;2023-04-02T04:07:00;1.2;;;2.7;;
76986;SDS011;65922;50.086;8.598;2023-04-02T04:08:00;1.4;;;3;;
76986;SDS011;65922;50.086;8.598;2023-04-02T04:09:04;2.1;;;5.2;;
76986;SDS011;65922;50.086;8.598;2023-04-02T04:10:00;1;;;3.7;;
76986;SDS011;65922;50.086;8.598;2023-04-02T04:11:00;1.2;;;3.3;;
76986;SDS011;65922;50.086;8.598;2023-04-02T04:12:04;1.2;;;3.1;;
76986;SDS011;65922;50.086;8.598;2023-04-02T04:13:01;2.2;;;2.7;;
76986;SDS011;65922;50.086;8.598;2023-04-02T04:14:01;1.3;;;4.5;;
76986;SDS011;65922;50.086;8.598;2023-04-02T04:15:02;2.2;;;3.5;;
76986;SDS011;65922;50.086;8.598;2023-04-02T04:16:01;1.5;;;3.6;;
76986;SDS011;65922;50.086;8.598;2023-04-02T04:17:00;1.9;;;3.2;;
76986;SDS011;65922;50.086;8.598;2023-04-02T04:18:01;2.5;;;3.7;;
76986;SDS011;65922;50.086;8.598;2023-04-02T04:19:00;1.9;;;2.8;;
76986;SDS011;65922;50.086;8.598;2023-04-02T04:20:00;1.9;;;3.6;;
76986;SDS011;65922;50.086;8.598;2023-04-02T04:21:00;2.3;;;4.3;;
76986;SDS011;65922;50.086;8.598;2023-04-02T04:22:08;2.1;;;3.1;;
76986;SDS011;65922;50.086;8.598;2023-04-02T04:23:08;2.2;;;3.6;;
76986;SDS011;65922;50.086;8.598;2023-04-02T04:24:00;2.2;;;4.2;;
76986;SDS011;65922;50.086;8.598;2023-04-02T04:25:00;2;;;4.5;;
76986;SDS011;65922;50.086;8.598;2023-04-02T04:26:00;2.4;;;4.1;;
76986;SDS011;65922;50.086;8.598;2023-04-02T04:27:01;2.3;;;3.7;;
76986;SDS011;65922;50.086;8.598;2023-04-02T04:28:02;2;;;3.4;;
76986;SDS011;65922;50.086;8.598;2023-04-02T04:29:03;2.4;;;3.5;;
76986;SDS011;65922;50.086;8.598;2023-04-02T04:30:00;2.3;;;4.3;;
76986;SDS011;65922;50.086;8.598;2023-04-02T04:31:00;1.9;;;3.7;;
76986;SDS011;65922;50.086;8.598;2023-04-02T04:32:07;2.7;;;5.1;;
76986;SDS011;65922;50.086;8.598;2023-04-02T04:33:01;1.3;;;3.7;;
76986;SDS011;65922;50.086;8.598;2023-04-02T04:34:00;3.1;;;4.3;;
76986;SDS011;65922;50.086;8.598;2023-04-02T04:35:01;1.3;;;5.7;;
76986;SDS011;65922;50.086;8.598;2023-04-02T04:36:00;1.8;;;2.9;;
76986;SDS011;65922;50.086;8.598;2023-04-02T04:37:00;1;;;1.8;;
76986;SDS011;65922;50.086;8.598;2023-04-02T04:38:01;2;;;2.9;;
76986;SDS011;65922;50.086;8.598;2023-04-02T04:39:03;2.1;;;4.7;;
76986;SDS011;65922;50.086;8.598;2023-04-02T04:40:01;1.7;;;3.7;;
76986;SDS011;65922;50.086;8.598;2023-04-02T04:41:01;1.6;;;2.7;;
76986;SDS011;65922;50.086;8.598;2023-04-02T04:42:00;2;;;3.6;;
76986;SDS011;65922;50.086;8.598;2023-04-02T04:43:00;2.5;;;4.2;;
76986;SDS011;65922;50.086;8.598;2023-04-02T04:44:00;1.2;;;3.1;;
76986;SDS011;65922;50.086;8.598;2023-04-02T04:45:02;0.8;;;4.5;;
76986;SDS011;65922;50.086;8.598;2023-04-02T04:46:00;1.2;;;2.1;;
76986;SDS011;65922;50.086;8.598;2023-04-02T04:47:01;1.5;;;3.3;;
76986;SDS011;65922;50.086;8.598;2023-04-02T04:48:00;1.3;;;2.8;;
76986;SDS011;65922;50.086;8.598;2023-04-02T04:49:01;2;;;5.7;;
76986;SDS011;65922;50.086;8.598;2023-04-02T04:50:02;2.4;;;4.9;;
76986;SDS011;65922;50.086;8.598;2023-04-02T04:51:00;2.1;;;4.8;;
76986;SDS011;65922;50.086;8.598;2023-04-02T04:52:04;1.7;;;3.5;;
76986;SDS011;65922;50.086;8.598;2023-04-02T04:53:03;1.6;;;4.6;;
76986;SDS011;65922;50.086;8.598;2023-04-02T04:54:00;1.8;;;3.3;;
76986;SDS011;65922;50.086;8.598;2023-04-02T04:55:00;1.9;;;4.7;;
76986;SDS011;65922;50.086;8.598;2023-04-02T04:56:00;1.5;;;3.5;;
76986;SDS011;65922;50.086;8.598;2023-04-02T04:57:00;1.5;;;4.2;;
76986;SDS011;65922;50.086;8.598;2023-04-02T04:58:00;2.3;;;4.4;;
76986;SDS011;65922;50.086;8.598;2023-04-02T04:59:00;2.5;;;6.8;;
76986;SDS011;65922;50.086;8.598;2023-04-02T05:00:02;1.5;;;2.9;;
76986;SDS011;65922;50.086;8.598;2023-04-02T05:01:01;1.2;;;2.4;;
76986;SDS011;65922;50.086;8.598;2023-04-02T05:02:00;2;;;2.9;;
76986;SDS011;65922;50.086;8.598;2023-04-02T05:03:01;1.5;;;2.4;;
76986;SDS011;65922;50.086;8.598;2023-04-02T05:04:00;2.3;;;6.2;;
76986;SDS011;65922;50.086;8.598;2023-04-02T05:05:00;2.2;;;4.3;;
76986;SDS011;65922;50.086;8.598;2023-04-02T05:06:02;1.3;;;2.7;;
76986;SDS011;65922;50.086;8.598;2023-04-02T05:07:01;1.7;;;4;;
76986;SDS011;65922;50.086;8.598;2023-04-02T05:08:03;1.3;;;2.4;;
76986;SDS011;65922;50.086;8.598;2023-04-02T05:09:00;1.4;;;3.3;;
76986;SDS011;65922;50.086;8.598;2023-04-02T05:10:01;2.1;;;3.4;;
76986;SDS011;65922;50.086;8.598;2023-04-02T05:11:00;1.3;;;3.5;;
76986;SDS011;65922;50.086;8.598;2023-04-02T05:12:02;2;;;7.6;;
76986;SDS011;65922;50.086;8.598;2023-04-02T05:13:00;3;;;8.1;;
76986;SDS011;65922;50.086;8.598;2023-04-02T05:14:00;1.6;;;3;;
76986;SDS011;65922;50.086;8.598;2023-04-02T05:15:01;2;;;4.7;;
76986;SDS011;65922;50.086;8.598;2023-04-02T05:16:00;1.8;;;3;;
76986;SDS011;65922;50.086;8.598;2023-04-02T05:17:00;1.8;;;3.4;;
76986;SDS011;65922;50.086;8.598;2023-04-02T05:18:05;2.2;;;3.6;;
76986;SDS011;65922;50.086;8.598;2023-04-02T05:19:01;2.5;;;4.3;;
76986;SDS011;65922;50.086;8.598;2023-04-02T05:20:01;3.5;;;4.8;;
76986;SDS011;65922;50.086;8.598;2023-04-02T05:21:02;2.4;;;4.9;;
76986;SDS011;65922;50.086;8.598;2023-04-02T05:22:02;2.2;;;4.4;;
76986;SDS011;65922;50.086;8.598;2023-04-02T05:23:01;1.6;;;4.5;;
76986;SDS011;65922;50.086;8.598;2023-04-02T05:24:03;1.9;;;3.3;;
76986;SDS011;65922;50.086;8.598;2023-04-02T05:25:01;2.8;;;3.9;;
76986;SDS011;65922;50.086;8.598;2023-04-02T05:26:01;1.8;;;4.8;;
76986;SDS011;65922;50.086;8.598;2023-04-02T05:27:01;1.5;;;4.2;;
76986;SDS011;65922;50.086;8.598;2023-04-02T05:28:02;2.2;;;4.1;;
76986;SDS011;65922;50.086;8.598;2023-04-02T05:29:00;1.4;;;3.2;;
76986;SDS011;65922;50.086;8.598;2023-04-02T05:30:04;2.9;;;5.9;;
76986;SDS011;65922;50.086;8.598;2023-04-02T05:31:01;2.8;;;4;;
76986;SDS011;65922;50.086;8.598;2023-04-02T05:32:00;1.3;;;5.4;;
76986;SDS011;65922;50.086;8.598;2023-04-02T05:33:01;1.8;;;4.3;;
76986;SDS011;65922;50.086;8.598;2023-04-02T05:34:00;2;;;4.7;;
76986;SDS011;65922;50.086;8.598;2023-04-02T05:35:00;1.4;;;3.5;;
76986;SDS011;65922;50.086;8.598;2023-04-02T05:36:00;2.3;;;4.7;;
76986;SDS011;65922;50.086;8.598;2023-04-02T05:37:00;1.4;;;2.8;;
76986;SDS011;65922;50.086;8.598;2023-04-02T05:38:00;2.5;;;5.2;;
76986;SDS011;65922;50.086;8.598;2023-04-02T05:39:00;1.8;;;3.9;;
76986;SDS011;65922;50.086;8.598;2023-04-02T05:40:04;1.6;;;3.6;;
76986;SDS011;65922;50.086;8.598;2023-04-02T05:41:01;1.1;;;3;;
76986;SDS011;65922;50.086;8.598;2023-04-02T05:42:00;2;;;8.1;;
76986;SDS011;65922;50.086;8.598;2023-04-02T05:43:00;3.2;;;3.9;;
76986;SDS011;65922;50.086;8.598;2023-04-02T05:44:02;1.8;;;4.1;;
76986;SDS011;65922;50.086;8.598;2023-04-02T05:45:02;1.3;;;3.9;;
76986;SDS011;65922;50.086;8.598;2023-04-02T05:46:02;1.5;;;3.3;;
76986;SDS011;65922;50.086;8.598;2023-04-02T05:47:00;2;;;4.5;;
76986;SDS011;65922;50.086;8.598;2023-04-02T05:48:00;2.3;;;5.5;;
76986;SDS011;65922;50.086;8.598;2023-04-02T05:49:00;2.4;;;3.9;;
76986;SDS011;65922;50.086;8.598;2023-04-02T05:50:09;2.2;;;7.1;;
76986;SDS011;65922;50.086;8.598;2023-04-02T05:51:01;2.4;;;6.6;;
76986;SDS011;65922;50.086;8.598;2023-04-02T05:52:00;1.6;;;4.5;;
76986;SDS011;65922;50.086;8.598;2023-04-02T05:53:01;2;;;6.7;;
76986;SDS011;65922;50.086;8.598;2023-04-02T05:54:00;2.2;;;4.9;;
76986;SDS011;65922;50.086;8.598;2023-04-02T05:55:01;2.3;;;3.8;;
76986;SDS011;65922;50.086;8.598;2023-04-02T05:56:00;1.3;;;2.2;;
76986;SDS011;65922;50.086;8.598;2023-04-02T05:57:01;1.5;;;7;;
76986;SDS011;65922;50.086;8.598;2023-04-02T05:58:03;2.3;;;5.7;;
76986;SDS011;65922;50.086;8.598;2023-04-02T05:59:01;2.6;;;4.7;;
76986;SDS011;65922;50.086;8.598;2023-04-02T06:00:03;2.2;;;4.6;;
76986;SDS011;65922;50.086;8.598;2023-04-02T06:01:02;1.3;;;3.4;;
76986;SDS011;65922;50.086;8.598;2023-04-02T06:02:00;2.2;;;4.3;;
76986;SDS011;65922;50.086;8.598;2023-04-02T06:03:01;2.4;;;6.9;;
76986;SDS011;65922;50.086;8.598;2023-04-02T06:04:01;1.7;;;3.8;;
76986;SDS011;65922;50.086;8.598;2023-04-02T06:05:00;1.9;;;4.6;;
76986;SDS011;65922;50.086;8.598;2023-04-02T06:06:00;1.9;;;5;;
76986;SDS011;65922;50.086;8.598;2023-04-02T06:07:00;2.2;;;3.6;;
76986;SDS011;65922;50.086;8.598;2023-04-02T06:08:00;1.9;;;4.2;;
76986;SDS011;65922;50.086;8.598;2023-04-02T06:09:00;2.6;;;5.5;;
76986;SDS011;65922;50.086;8.598;2023-04-02T06:10:00;1.9;;;5.2;;
76986;SDS011;65922;50.086;8.598;2023-04-02T06:11:00;1.8;;;3.9;;
76986;SDS011;65922;50.086;8.598;2023-04-02T06:12:01;3.2;;;4.1;;
76986;SDS011;65922;50.086;8.598;2023-04-02T06:13:01;2.9;;;7.5;;
76986;SDS011;65922;50.086;8.598;2023-04-02T06:14:00;2;;;3.7;;
76986;SDS011;65922;50.086;8.598;2023-04-02T06:15:00;2;;;5.5;;
76986;SDS011;65922;50.086;8.598;2023-04-02T06:16:00;2.1;;;4.4;;
76986;SDS011;65922;50.086;8.598;2023-04-02T06:17:00;2.6;;;5.3;;